sensor_id;sensor_type;location;lat;lon;timestamp;temperature;humidity
12520;DHT22;6325;49.540;8.364;2022-07-03T00:00:09;19.80;99.90
12520;DHT22;6325;49.540;8.364;2022-07-03T00:02:36;19.70;99.90
12520;DHT22;6325;49.540;8.364;2022-07-03T00:05:03;20.30;99.90
12520;DHT22;6325;49.540;8.364;2022-07-03T00:07:31;19.50;99.90
12520;DHT22;6325;49.540;8.364;2022-07-03T00:09:58;19.40;99.90
12520;DHT22;6325;49.540;8.364;2022-07-03T00:12:25;19.50;99.90
12520;DHT22;6325;49.540;8.364;2022-07-03T00:14:52;20.20;99.90
12520;DHT22;6325;49.540;8.364;2022-07-03T00:17:20;19.40;99.90
12520;DHT22;6325;49.540;8.364;2022-07-03T00:19:47;19.20;99.90
12520;DHT22;6325;49.540;8.364;2022-07-03T00:22:15;19.10;99.90
12520;DHT22;6325;49.540;8.364;2022-07-03T00:24:44;18.90;99.90
12520;DHT22;6325;49.540;8.364;2022-07-03T00:27:12;18.90;99.90
12520;DHT22;6325;49.540;8.364;2022-07-03T00:29:41;19.20;99.90
12520;DHT22;6325;49.540;8.364;2022-07-03T00:32:10;19.30;99.90
12520;DHT22;6325;49.540;8.364;2022-07-03T00:34:39;18.80;99.90
12520;DHT22;6325;49.540;8.364;2022-07-03T00:37:08;19.10;99.90
12520;DHT22;6325;49.540;8.364;2022-07-03T00:39:36;19.10;99.90
12520;DHT22;6325;49.540;8.364;2022-07-03T00:42:05;18.80;99.90
12520;DHT22;6325;49.540;8.364;2022-07-03T00:44:35;19.10;99.90
12520;DHT22;6325;49.540;8.364;2022-07-03T00:47:09;19.00;99.90
12520;DHT22;6325;49.540;8.364;2022-07-03T00:49:40;19.00;99.90
12520;DHT22;6325;49.540;8.364;2022-07-03T00:52:08;18.90;99.90
12520;DHT22;6325;49.540;8.364;2022-07-03T00:54:36;19.00;99.90
12520;DHT22;6325;49.540;8.364;2022-07-03T00:57:05;19.00;99.90
12520;DHT22;6325;49.540;8.364;2022-07-03T00:59:36;18.80;99.90
12520;DHT22;6325;49.540;8.364;2022-07-03T01:02:04;18.80;99.90
12520;DHT22;6325;49.540;8.364;2022-07-03T01:04:40;18.80;99.90
12520;DHT22;6325;49.540;8.364;2022-07-03T01:07:22;18.70;99.90
12520;DHT22;6325;49.540;8.364;2022-07-03T01:09:59;18.70;99.90
12520;DHT22;6325;49.540;8.364;2022-07-03T01:12:35;18.90;99.90
12520;DHT22;6325;49.540;8.364;2022-07-03T01:15:10;18.70;99.90
12520;DHT22;6325;49.540;8.364;2022-07-03T01:17:39;18.50;99.90
12520;DHT22;6325;49.540;8.364;2022-07-03T01:20:08;18.60;99.90
12520;DHT22;6325;49.540;8.364;2022-07-03T01:22:37;18.50;99.90
12520;DHT22;6325;49.540;8.364;2022-07-03T01:25:24;18.60;99.90
12520;DHT22;6325;49.540;8.364;2022-07-03T01:28:07;18.50;99.90
12520;DHT22;6325;49.540;8.364;2022-07-03T01:30:39;18.50;99.90
12520;DHT22;6325;49.540;8.364;2022-07-03T01:33:08;18.70;99.90
12520;DHT22;6325;49.540;8.364;2022-07-03T01:35:37;18.50;99.90
12520;DHT22;6325;49.540;8.364;2022-07-03T01:38:07;18.50;99.90
12520;DHT22;6325;49.540;8.364;2022-07-03T01:40:36;18.70;99.90
12520;DHT22;6325;49.540;8.364;2022-07-03T01:43:06;18.80;99.90
12520;DHT22;6325;49.540;8.364;2022-07-03T01:45:37;18.80;99.90
12520;DHT22;6325;49.540;8.364;2022-07-03T01:48:06;18.90;99.90
12520;DHT22;6325;49.540;8.364;2022-07-03T01:50:33;18.40;99.90
12520;DHT22;6325;49.540;8.364;2022-07-03T01:53:02;18.60;99.90
12520;DHT22;6325;49.540;8.364;2022-07-03T01:55:32;18.30;99.90
12520;DHT22;6325;49.540;8.364;2022-07-03T01:58:00;18.60;99.90
12520;DHT22;6325;49.540;8.364;2022-07-03T02:00:29;17.70;99.90
12520;DHT22;6325;49.540;8.364;2022-07-03T02:02:58;18.50;99.90
12520;DHT22;6325;49.540;8.364;2022-07-03T02:05:38;18.10;99.90
12520;DHT22;6325;49.540;8.364;2022-07-03T02:08:23;18.30;99.90
12520;DHT22;6325;49.540;8.364;2022-07-03T02:11:01;18.20;99.90
12520;DHT22;6325;49.540;8.364;2022-07-03T02:13:31;17.80;99.90
12520;DHT22;6325;49.540;8.364;2022-07-03T02:16:03;17.70;99.90
12520;DHT22;6325;49.540;8.364;2022-07-03T02:18:33;18.10;99.90
12520;DHT22;6325;49.540;8.364;2022-07-03T02:21:05;18.20;99.90
12520;DHT22;6325;49.540;8.364;2022-07-03T02:23:51;18.30;99.90
12520;DHT22;6325;49.540;8.364;2022-07-03T02:26:24;17.70;99.90
12520;DHT22;6325;49.540;8.364;2022-07-03T02:28:58;17.90;99.90
12520;DHT22;6325;49.540;8.364;2022-07-03T02:31:34;17.90;99.90
12520;DHT22;6325;49.540;8.364;2022-07-03T02:34:05;17.50;99.90
12520;DHT22;6325;49.540;8.364;2022-07-03T02:36:34;18.50;99.90
12520;DHT22;6325;49.540;8.364;2022-07-03T02:39:02;17.50;99.90
12520;DHT22;6325;49.540;8.364;2022-07-03T02:41:39;18.00;99.90
12520;DHT22;6325;49.540;8.364;2022-07-03T02:44:17;18.00;99.90
12520;DHT22;6325;49.540;8.364;2022-07-03T02:46:59;17.70;99.90
12520;DHT22;6325;49.540;8.364;2022-07-03T02:49:41;18.10;99.90
12520;DHT22;6325;49.540;8.364;2022-07-03T02:52:13;18.20;99.90
12520;DHT22;6325;49.540;8.364;2022-07-03T02:54:44;17.80;99.90
12520;DHT22;6325;49.540;8.364;2022-07-03T02:57:14;17.70;99.90
12520;DHT22;6325;49.540;8.364;2022-07-03T02:59:50;18.10;99.90
12520;DHT22;6325;49.540;8.364;2022-07-03T03:02:25;18.10;99.90
12520;DHT22;6325;49.540;8.364;2022-07-03T03:04:58;18.30;99.90
12520;DHT22;6325;49.540;8.364;2022-07-03T03:07:34;17.80;99.90
12520;DHT22;6325;49.540;8.364;2022-07-03T03:10:01;17.30;99.90
12520;DHT22;6325;49.540;8.364;2022-07-03T03:12:31;17.60;99.90
12520;DHT22;6325;49.540;8.364;2022-07-03T03:15:02;18.00;99.90
12520;DHT22;6325;49.540;8.364;2022-07-03T03:17:41;17.70;99.90
12520;DHT22;6325;49.540;8.364;2022-07-03T03:20:10;18.00;99.90
12520;DHT22;6325;49.540;8.364;2022-07-03T03:22:54;17.30;99.90
12520;DHT22;6325;49.540;8.364;2022-07-03T03:25:25;17.70;99.90
12520;DHT22;6325;49.540;8.364;2022-07-03T03:27:52;17.30;99.90
12520;DHT22;6325;49.540;8.364;2022-07-03T03:30:19;17.10;99.90
12520;DHT22;6325;49.540;8.364;2022-07-03T03:32:47;17.60;99.90
12520;DHT22;6325;49.540;8.364;2022-07-03T03:35:14;17.70;99.90
12520;DHT22;6325;49.540;8.364;2022-07-03T03:37:41;17.80;99.90
12520;DHT22;6325;49.540;8.364;2022-07-03T03:40:09;17.60;99.90
12520;DHT22;6325;49.540;8.364;2022-07-03T03:42:37;17.30;99.90
12520;DHT22;6325;49.540;8.364;2022-07-03T03:45:04;17.80;99.90
12520;DHT22;6325;49.540;8.364;2022-07-03T03:47:32;17.10;99.90
12520;DHT22;6325;49.540;8.364;2022-07-03T03:50:01;17.50;99.90
12520;DHT22;6325;49.540;8.364;2022-07-03T03:52:29;17.40;99.90
12520;DHT22;6325;49.540;8.364;2022-07-03T03:54:55;17.70;99.90
12520;DHT22;6325;49.540;8.364;2022-07-03T03:57:24;17.90;99.90
12520;DHT22;6325;49.540;8.364;2022-07-03T03:59:51;17.50;99.90
12520;DHT22;6325;49.540;8.364;2022-07-03T04:02:18;17.50;99.90
12520;DHT22;6325;49.540;8.364;2022-07-03T04:04:45;17.50;99.90
12520;DHT22;6325;49.540;8.364;2022-07-03T04:07:13;18.10;99.90
12520;DHT22;6325;49.540;8.364;2022-07-03T04:09:41;17.50;99.90
12520;DHT22;6325;49.540;8.364;2022-07-03T04:12:08;18.00;99.90
12520;DHT22;6325;49.540;8.364;2022-07-03T04:14:35;17.00;99.90
12520;DHT22;6325;49.540;8.364;2022-07-03T04:17:02;16.90;99.90
12520;DHT22;6325;49.540;8.364;2022-07-03T04:19:30;17.40;99.90
12520;DHT22;6325;49.540;8.364;2022-07-03T04:21:56;17.50;99.90
12520;DHT22;6325;49.540;8.364;2022-07-03T04:24:25;17.90;99.90
12520;DHT22;6325;49.540;8.364;2022-07-03T04:26:52;17.30;99.90
12520;DHT22;6325;49.540;8.364;2022-07-03T04:29:19;17.70;99.90
12520;DHT22;6325;49.540;8.364;2022-07-03T04:31:46;17.60;99.90
12520;DHT22;6325;49.540;8.364;2022-07-03T04:34:12;17.60;99.90
12520;DHT22;6325;49.540;8.364;2022-07-03T04:36:39;18.30;99.90
12520;DHT22;6325;49.540;8.364;2022-07-03T04:39:06;17.40;99.90
12520;DHT22;6325;49.540;8.364;2022-07-03T04:41:34;17.40;99.90
12520;DHT22;6325;49.540;8.364;2022-07-03T04:44:01;17.40;99.90
12520;DHT22;6325;49.540;8.364;2022-07-03T04:46:28;17.60;99.90
12520;DHT22;6325;49.540;8.364;2022-07-03T04:48:55;17.90;99.90
12520;DHT22;6325;49.540;8.364;2022-07-03T04:51:21;17.60;99.90
12520;DHT22;6325;49.540;8.364;2022-07-03T04:53:48;18.30;99.90
12520;DHT22;6325;49.540;8.364;2022-07-03T04:56:15;17.50;99.90
12520;DHT22;6325;49.540;8.364;2022-07-03T04:58:43;17.70;99.90
12520;DHT22;6325;49.540;8.364;2022-07-03T05:01:11;17.90;99.90
12520;DHT22;6325;49.540;8.364;2022-07-03T05:03:38;17.90;99.90
12520;DHT22;6325;49.540;8.364;2022-07-03T05:06:05;17.80;99.90
12520;DHT22;6325;49.540;8.364;2022-07-03T05:08:32;18.20;99.90
12520;DHT22;6325;49.540;8.364;2022-07-03T05:11:00;17.80;99.90
12520;DHT22;6325;49.540;8.364;2022-07-03T05:13:27;18.30;99.90
12520;DHT22;6325;49.540;8.364;2022-07-03T05:15:55;18.20;99.90
12520;DHT22;6325;49.540;8.364;2022-07-03T05:18:22;17.90;99.90
12520;DHT22;6325;49.540;8.364;2022-07-03T05:20:49;18.50;99.90
12520;DHT22;6325;49.540;8.364;2022-07-03T05:23:16;18.50;99.90
12520;DHT22;6325;49.540;8.364;2022-07-03T05:25:43;18.10;99.90
12520;DHT22;6325;49.540;8.364;2022-07-03T05:28:10;18.40;99.90
12520;DHT22;6325;49.540;8.364;2022-07-03T05:30:37;18.50;99.90
12520;DHT22;6325;49.540;8.364;2022-07-03T05:33:05;18.60;99.90
12520;DHT22;6325;49.540;8.364;2022-07-03T05:35:32;18.30;99.90
12520;DHT22;6325;49.540;8.364;2022-07-03T05:37:59;18.40;99.90
12520;DHT22;6325;49.540;8.364;2022-07-03T05:40:26;18.40;99.90
12520;DHT22;6325;49.540;8.364;2022-07-03T05:42:53;18.50;99.90
12520;DHT22;6325;49.540;8.364;2022-07-03T05:45:20;18.10;99.90
12520;DHT22;6325;49.540;8.364;2022-07-03T05:47:47;18.90;99.90
12520;DHT22;6325;49.540;8.364;2022-07-03T05:50:15;18.40;99.90
12520;DHT22;6325;49.540;8.364;2022-07-03T05:52:42;18.30;99.90
12520;DHT22;6325;49.540;8.364;2022-07-03T05:55:09;18.80;99.90
12520;DHT22;6325;49.540;8.364;2022-07-03T05:57:36;18.80;99.90
12520;DHT22;6325;49.540;8.364;2022-07-03T06:00:04;19.00;99.90
12520;DHT22;6325;49.540;8.364;2022-07-03T06:02:32;18.80;99.90
12520;DHT22;6325;49.540;8.364;2022-07-03T06:04:59;19.10;99.90
12520;DHT22;6325;49.540;8.364;2022-07-03T06:07:27;19.20;99.90
12520;DHT22;6325;49.540;8.364;2022-07-03T06:09:55;19.30;99.90
12520;DHT22;6325;49.540;8.364;2022-07-03T06:12:22;19.30;99.90
12520;DHT22;6325;49.540;8.364;2022-07-03T06:14:49;19.40;99.90
12520;DHT22;6325;49.540;8.364;2022-07-03T06:17:16;20.00;99.90
12520;DHT22;6325;49.540;8.364;2022-07-03T06:19:43;19.50;99.90
12520;DHT22;6325;49.540;8.364;2022-07-03T06:22:10;19.70;99.90
12520;DHT22;6325;49.540;8.364;2022-07-03T06:24:38;19.50;99.90
12520;DHT22;6325;49.540;8.364;2022-07-03T06:27:05;19.70;99.90
12520;DHT22;6325;49.540;8.364;2022-07-03T06:29:32;19.70;99.90
12520;DHT22;6325;49.540;8.364;2022-07-03T06:31:59;19.70;99.90
12520;DHT22;6325;49.540;8.364;2022-07-03T06:34:26;19.90;99.90
12520;DHT22;6325;49.540;8.364;2022-07-03T06:36:53;20.00;99.90
12520;DHT22;6325;49.540;8.364;2022-07-03T06:39:20;20.10;99.90
12520;DHT22;6325;49.540;8.364;2022-07-03T06:41:48;20.10;99.90
12520;DHT22;6325;49.540;8.364;2022-07-03T06:44:15;20.00;99.90
12520;DHT22;6325;49.540;8.364;2022-07-03T06:46:41;20.60;99.90
12520;DHT22;6325;49.540;8.364;2022-07-03T06:49:08;20.40;99.90
12520;DHT22;6325;49.540;8.364;2022-07-03T06:51:35;20.60;99.90
12520;DHT22;6325;49.540;8.364;2022-07-03T06:54:02;20.70;99.90
12520;DHT22;6325;49.540;8.364;2022-07-03T06:56:29;20.80;99.90
12520;DHT22;6325;49.540;8.364;2022-07-03T06:58:57;21.00;99.90
12520;DHT22;6325;49.540;8.364;2022-07-03T07:01:24;20.60;99.90
12520;DHT22;6325;49.540;8.364;2022-07-03T07:03:51;21.00;99.90
12520;DHT22;6325;49.540;8.364;2022-07-03T07:06:18;21.20;99.90
12520;DHT22;6325;49.540;8.364;2022-07-03T07:08:45;21.30;99.90
12520;DHT22;6325;49.540;8.364;2022-07-03T07:11:12;21.20;99.90
12520;DHT22;6325;49.540;8.364;2022-07-03T07:13:39;21.30;99.90
12520;DHT22;6325;49.540;8.364;2022-07-03T07:16:08;22.20;99.90
12520;DHT22;6325;49.540;8.364;2022-07-03T07:18:35;21.50;99.90
12520;DHT22;6325;49.540;8.364;2022-07-03T07:21:03;21.70;99.90
12520;DHT22;6325;49.540;8.364;2022-07-03T07:23:30;21.70;99.90
12520;DHT22;6325;49.540;8.364;2022-07-03T07:25:57;21.80;99.90
12520;DHT22;6325;49.540;8.364;2022-07-03T07:28:24;21.80;99.90
12520;DHT22;6325;49.540;8.364;2022-07-03T07:30:51;21.90;99.90
12520;DHT22;6325;49.540;8.364;2022-07-03T07:33:21;21.90;99.90
12520;DHT22;6325;49.540;8.364;2022-07-03T07:35:48;22.10;99.90
12520;DHT22;6325;49.540;8.364;2022-07-03T07:38:15;21.90;99.90
12520;DHT22;6325;49.540;8.364;2022-07-03T07:40:42;22.70;99.90
12520;DHT22;6325;49.540;8.364;2022-07-03T07:43:09;22.30;99.90
12520;DHT22;6325;49.540;8.364;2022-07-03T07:45:36;22.50;99.90
12520;DHT22;6325;49.540;8.364;2022-07-03T07:48:03;22.90;99.90
12520;DHT22;6325;49.540;8.364;2022-07-03T07:50:31;22.80;99.90
12520;DHT22;6325;49.540;8.364;2022-07-03T07:52:58;23.30;99.90
12520;DHT22;6325;49.540;8.364;2022-07-03T07:55:25;23.10;99.90
12520;DHT22;6325;49.540;8.364;2022-07-03T07:57:52;23.10;99.90
12520;DHT22;6325;49.540;8.364;2022-07-03T08:00:20;23.50;99.90
12520;DHT22;6325;49.540;8.364;2022-07-03T08:02:48;23.60;99.90
12520;DHT22;6325;49.540;8.364;2022-07-03T08:05:33;23.50;99.90
12520;DHT22;6325;49.540;8.364;2022-07-03T08:08:05;23.70;99.90
12520;DHT22;6325;49.540;8.364;2022-07-03T08:10:38;23.30;99.90
12520;DHT22;6325;49.540;8.364;2022-07-03T08:13:05;23.60;99.90
12520;DHT22;6325;49.540;8.364;2022-07-03T08:15:32;24.00;99.90
12520;DHT22;6325;49.540;8.364;2022-07-03T08:17:59;23.90;99.90
12520;DHT22;6325;49.540;8.364;2022-07-03T08:20:26;24.10;99.90
12520;DHT22;6325;49.540;8.364;2022-07-03T08:22:55;24.00;99.90
12520;DHT22;6325;49.540;8.364;2022-07-03T08:25:22;24.80;99.90
12520;DHT22;6325;49.540;8.364;2022-07-03T08:27:49;24.30;99.90
12520;DHT22;6325;49.540;8.364;2022-07-03T08:30:16;24.70;99.90
12520;DHT22;6325;49.540;8.364;2022-07-03T08:32:44;24.70;99.90
12520;DHT22;6325;49.540;8.364;2022-07-03T08:35:11;25.00;99.90
12520;DHT22;6325;49.540;8.364;2022-07-03T08:37:38;25.40;99.90
12520;DHT22;6325;49.540;8.364;2022-07-03T08:40:09;25.00;99.90
12520;DHT22;6325;49.540;8.364;2022-07-03T08:42:37;25.10;99.90
12520;DHT22;6325;49.540;8.364;2022-07-03T08:45:06;25.00;99.90
12520;DHT22;6325;49.540;8.364;2022-07-03T08:47:36;25.30;99.90
12520;DHT22;6325;49.540;8.364;2022-07-03T08:50:06;25.50;99.90
12520;DHT22;6325;49.540;8.364;2022-07-03T08:52:33;25.50;99.90
12520;DHT22;6325;49.540;8.364;2022-07-03T08:55:02;25.60;99.90
12520;DHT22;6325;49.540;8.364;2022-07-03T08:57:31;25.30;99.90
12520;DHT22;6325;49.540;8.364;2022-07-03T08:59:58;25.70;99.90
12520;DHT22;6325;49.540;8.364;2022-07-03T09:02:28;25.80;99.90
12520;DHT22;6325;49.540;8.364;2022-07-03T09:04:56;25.50;99.90
12520;DHT22;6325;49.540;8.364;2022-07-03T09:07:24;26.00;99.90
12520;DHT22;6325;49.540;8.364;2022-07-03T09:09:52;26.80;99.90
12520;DHT22;6325;49.540;8.364;2022-07-03T09:12:19;26.40;99.90
12520;DHT22;6325;49.540;8.364;2022-07-03T09:14:47;26.30;99.90
12520;DHT22;6325;49.540;8.364;2022-07-03T09:17:15;26.30;99.90
12520;DHT22;6325;49.540;8.364;2022-07-03T09:19:42;26.70;99.90
12520;DHT22;6325;49.540;8.364;2022-07-03T09:22:19;27.00;99.90
12520;DHT22;6325;49.540;8.364;2022-07-03T09:24:47;26.90;99.90
12520;DHT22;6325;49.540;8.364;2022-07-03T09:27:17;27.20;99.90
12520;DHT22;6325;49.540;8.364;2022-07-03T09:29:56;26.80;99.90
12520;DHT22;6325;49.540;8.364;2022-07-03T09:32:25;27.10;99.90
12520;DHT22;6325;49.540;8.364;2022-07-03T09:35:11;27.40;99.90
12520;DHT22;6325;49.540;8.364;2022-07-03T09:37:39;26.60;98.90
12520;DHT22;6325;49.540;8.364;2022-07-03T09:40:06;26.60;98.60
12520;DHT22;6325;49.540;8.364;2022-07-03T09:42:33;27.50;99.00
12520;DHT22;6325;49.540;8.364;2022-07-03T09:45:02;27.40;99.70
12520;DHT22;6325;49.540;8.364;2022-07-03T09:47:28;27.50;99.10
12520;DHT22;6325;49.540;8.364;2022-07-03T09:49:56;27.50;99.00
12520;DHT22;6325;49.540;8.364;2022-07-03T09:52:32;28.20;97.50
12520;DHT22;6325;49.540;8.364;2022-07-03T09:55:00;28.10;97.30
12520;DHT22;6325;49.540;8.364;2022-07-03T09:57:28;27.90;98.60
12520;DHT22;6325;49.540;8.364;2022-07-03T10:00:14;27.80;97.60
12520;DHT22;6325;49.540;8.364;2022-07-03T10:02:56;28.50;97.50
12520;DHT22;6325;49.540;8.364;2022-07-03T10:05:24;28.00;97.10
12520;DHT22;6325;49.540;8.364;2022-07-03T10:07:53;28.10;96.30
12520;DHT22;6325;49.540;8.364;2022-07-03T10:10:22;28.40;96.40
12520;DHT22;6325;49.540;8.364;2022-07-03T10:12:50;28.10;94.40
12520;DHT22;6325;49.540;8.364;2022-07-03T10:15:19;28.20;92.10
12520;DHT22;6325;49.540;8.364;2022-07-03T10:17:50;28.10;92.40
12520;DHT22;6325;49.540;8.364;2022-07-03T10:20:26;28.40;91.60
12520;DHT22;6325;49.540;8.364;2022-07-03T10:22:53;28.60;90.00
12520;DHT22;6325;49.540;8.364;2022-07-03T10:25:20;28.60;91.00
12520;DHT22;6325;49.540;8.364;2022-07-03T10:27:48;28.80;91.10
12520;DHT22;6325;49.540;8.364;2022-07-03T10:30:16;28.90;90.40
12520;DHT22;6325;49.540;8.364;2022-07-03T10:32:46;28.80;90.50
12520;DHT22;6325;49.540;8.364;2022-07-03T10:35:15;28.80;88.70
12520;DHT22;6325;49.540;8.364;2022-07-03T10:38:07;29.60;90.30
12520;DHT22;6325;49.540;8.364;2022-07-03T10:40:42;29.30;90.40
12520;DHT22;6325;49.540;8.364;2022-07-03T10:43:31;29.40;86.30
12520;DHT22;6325;49.540;8.364;2022-07-03T10:46:18;29.60;88.90
12520;DHT22;6325;49.540;8.364;2022-07-03T10:48:56;29.70;85.50
12520;DHT22;6325;49.540;8.364;2022-07-03T10:51:24;29.70;84.60
12520;DHT22;6325;49.540;8.364;2022-07-03T10:54:12;29.50;84.00
12520;DHT22;6325;49.540;8.364;2022-07-03T11:00:07;30.40;88.20
12520;DHT22;6325;49.540;8.364;2022-07-03T11:02:39;30.10;84.30
12520;DHT22;6325;49.540;8.364;2022-07-03T11:05:36;30.20;83.90
12520;DHT22;6325;49.540;8.364;2022-07-03T11:08:10;30.50;82.70
12520;DHT22;6325;49.540;8.364;2022-07-03T11:10:42;30.00;82.70
12520;DHT22;6325;49.540;8.364;2022-07-03T11:13:14;30.20;82.10
12520;DHT22;6325;49.540;8.364;2022-07-03T11:15:44;30.80;84.50
12520;DHT22;6325;49.540;8.364;2022-07-03T11:18:15;31.00;83.20
12520;DHT22;6325;49.540;8.364;2022-07-03T11:27:24;30.70;78.20
12520;DHT22;6325;49.540;8.364;2022-07-03T11:29:57;30.90;78.80
12520;DHT22;6325;49.540;8.364;2022-07-03T11:32:44;30.90;77.40
12520;DHT22;6325;49.540;8.364;2022-07-03T11:35:45;31.10;75.10
12520;DHT22;6325;49.540;8.364;2022-07-03T11:38:17;31.30;74.70
12520;DHT22;6325;49.540;8.364;2022-07-03T11:40:45;31.60;75.50
12520;DHT22;6325;49.540;8.364;2022-07-03T11:43:14;31.30;76.20
12520;DHT22;6325;49.540;8.364;2022-07-03T11:45:41;31.50;75.50
12520;DHT22;6325;49.540;8.364;2022-07-03T11:48:09;31.80;74.20
12520;DHT22;6325;49.540;8.364;2022-07-03T11:50:37;31.40;74.50
12520;DHT22;6325;49.540;8.364;2022-07-03T11:53:28;31.10;72.50
12520;DHT22;6325;49.540;8.364;2022-07-03T11:55:57;31.80;70.80
12520;DHT22;6325;49.540;8.364;2022-07-03T11:58:39;31.60;70.60
12520;DHT22;6325;49.540;8.364;2022-07-03T12:01:07;31.50;69.80
12520;DHT22;6325;49.540;8.364;2022-07-03T12:03:33;31.20;69.60
12520;DHT22;6325;49.540;8.364;2022-07-03T12:06:00;31.30;69.70
12520;DHT22;6325;49.540;8.364;2022-07-03T12:08:30;31.50;70.30
12520;DHT22;6325;49.540;8.364;2022-07-03T12:11:03;31.70;69.30
12520;DHT22;6325;49.540;8.364;2022-07-03T12:13:30;31.40;67.90
12520;DHT22;6325;49.540;8.364;2022-07-03T12:16:05;31.90;66.40
12520;DHT22;6325;49.540;8.364;2022-07-03T12:18:47;31.40;64.90
12520;DHT22;6325;49.540;8.364;2022-07-03T12:21:14;31.90;66.50
12520;DHT22;6325;49.540;8.364;2022-07-03T12:23:45;32.20;65.80
12520;DHT22;6325;49.540;8.364;2022-07-03T12:26:12;31.70;65.10
12520;DHT22;6325;49.540;8.364;2022-07-03T12:28:39;31.80;67.50
12520;DHT22;6325;49.540;8.364;2022-07-03T12:31:07;31.70;67.50
12520;DHT22;6325;49.540;8.364;2022-07-03T12:33:33;32.00;65.40
12520;DHT22;6325;49.540;8.364;2022-07-03T12:36:02;32.20;64.60
12520;DHT22;6325;49.540;8.364;2022-07-03T12:38:29;32.10;63.90
12520;DHT22;6325;49.540;8.364;2022-07-03T12:41:07;32.10;63.20
12520;DHT22;6325;49.540;8.364;2022-07-03T12:43:38;32.30;63.10
12520;DHT22;6325;49.540;8.364;2022-07-03T12:46:15;32.80;64.40
12520;DHT22;6325;49.540;8.364;2022-07-03T12:48:47;32.10;63.30
12520;DHT22;6325;49.540;8.364;2022-07-03T12:51:15;32.10;62.30
12520;DHT22;6325;49.540;8.364;2022-07-03T12:53:42;32.40;62.20
12520;DHT22;6325;49.540;8.364;2022-07-03T12:56:10;32.40;63.60
12520;DHT22;6325;49.540;8.364;2022-07-03T12:58:39;32.20;62.30
12520;DHT22;6325;49.540;8.364;2022-07-03T13:01:25;32.10;62.30
12520;DHT22;6325;49.540;8.364;2022-07-03T13:03:52;32.60;62.70
12520;DHT22;6325;49.540;8.364;2022-07-03T13:06:20;32.60;61.30
12520;DHT22;6325;49.540;8.364;2022-07-03T13:08:52;32.40;60.50
12520;DHT22;6325;49.540;8.364;2022-07-03T13:11:28;32.30;63.50
12520;DHT22;6325;49.540;8.364;2022-07-03T13:14:03;32.20;61.80
12520;DHT22;6325;49.540;8.364;2022-07-03T13:16:36;32.30;62.00
12520;DHT22;6325;49.540;8.364;2022-07-03T13:19:05;31.70;61.50
12520;DHT22;6325;49.540;8.364;2022-07-03T13:21:32;32.40;61.90
12520;DHT22;6325;49.540;8.364;2022-07-03T13:23:59;32.30;61.80
12520;DHT22;6325;49.540;8.364;2022-07-03T13:26:27;32.90;62.60
12520;DHT22;6325;49.540;8.364;2022-07-03T13:28:54;33.10;62.10
12520;DHT22;6325;49.540;8.364;2022-07-03T13:31:21;33.30;60.60
12520;DHT22;6325;49.540;8.364;2022-07-03T13:33:48;33.40;60.00
12520;DHT22;6325;49.540;8.364;2022-07-03T13:36:15;33.40;59.20
12520;DHT22;6325;49.540;8.364;2022-07-03T13:38:44;33.80;59.30
12520;DHT22;6325;49.540;8.364;2022-07-03T13:41:11;33.20;59.70
12520;DHT22;6325;49.540;8.364;2022-07-03T13:43:39;33.50;58.70
12520;DHT22;6325;49.540;8.364;2022-07-03T13:46:06;33.40;58.20
12520;DHT22;6325;49.540;8.364;2022-07-03T13:48:33;33.50;59.50
12520;DHT22;6325;49.540;8.364;2022-07-03T13:51:00;33.60;59.20
12520;DHT22;6325;49.540;8.364;2022-07-03T13:53:26;33.70;57.90
12520;DHT22;6325;49.540;8.364;2022-07-03T13:55:55;33.40;57.50
12520;DHT22;6325;49.540;8.364;2022-07-03T13:58:23;33.80;57.00
12520;DHT22;6325;49.540;8.364;2022-07-03T14:00:51;34.00;56.90
12520;DHT22;6325;49.540;8.364;2022-07-03T14:03:18;34.00;56.50
12520;DHT22;6325;49.540;8.364;2022-07-03T14:05:45;34.00;56.00
12520;DHT22;6325;49.540;8.364;2022-07-03T14:08:13;34.00;56.30
12520;DHT22;6325;49.540;8.364;2022-07-03T14:10:40;34.10;56.20
12520;DHT22;6325;49.540;8.364;2022-07-03T14:13:06;33.60;57.50
12520;DHT22;6325;49.540;8.364;2022-07-03T14:15:34;34.00;56.70
12520;DHT22;6325;49.540;8.364;2022-07-03T14:18:02;33.90;55.40
12520;DHT22;6325;49.540;8.364;2022-07-03T14:20:29;33.80;56.50
12520;DHT22;6325;49.540;8.364;2022-07-03T14:22:56;34.20;56.50
12520;DHT22;6325;49.540;8.364;2022-07-03T14:25:22;34.10;55.80
12520;DHT22;6325;49.540;8.364;2022-07-03T14:27:49;34.00;55.10
12520;DHT22;6325;49.540;8.364;2022-07-03T14:30:34;33.90;56.80
12520;DHT22;6325;49.540;8.364;2022-07-03T14:33:19;34.30;55.60
12520;DHT22;6325;49.540;8.364;2022-07-03T14:35:46;34.40;53.80
12520;DHT22;6325;49.540;8.364;2022-07-03T14:38:13;34.20;53.60
12520;DHT22;6325;49.540;8.364;2022-07-03T14:40:40;34.00;54.40
12520;DHT22;6325;49.540;8.364;2022-07-03T14:43:06;34.20;54.30
12520;DHT22;6325;49.540;8.364;2022-07-03T14:45:33;33.90;54.50
12520;DHT22;6325;49.540;8.364;2022-07-03T14:48:00;34.40;54.50
12520;DHT22;6325;49.540;8.364;2022-07-03T14:50:28;34.10;53.80
12520;DHT22;6325;49.540;8.364;2022-07-03T14:52:55;34.50;53.70
12520;DHT22;6325;49.540;8.364;2022-07-03T14:55:30;34.60;53.50
12520;DHT22;6325;49.540;8.364;2022-07-03T14:58:02;34.60;53.30
12520;DHT22;6325;49.540;8.364;2022-07-03T15:00:30;34.50;53.80
12520;DHT22;6325;49.540;8.364;2022-07-03T15:03:04;35.00;52.70
12520;DHT22;6325;49.540;8.364;2022-07-03T15:05:33;34.60;51.60
12520;DHT22;6325;49.540;8.364;2022-07-03T15:08:05;34.80;52.40
12520;DHT22;6325;49.540;8.364;2022-07-03T15:10:35;34.40;52.40
12520;DHT22;6325;49.540;8.364;2022-07-03T15:13:05;35.00;52.80
12520;DHT22;6325;49.540;8.364;2022-07-03T15:15:33;35.00;52.50
12520;DHT22;6325;49.540;8.364;2022-07-03T15:18:01;35.10;52.20
12520;DHT22;6325;49.540;8.364;2022-07-03T15:20:33;35.00;52.40
12520;DHT22;6325;49.540;8.364;2022-07-03T15:23:02;34.80;52.20
12520;DHT22;6325;49.540;8.364;2022-07-03T15:25:30;35.00;52.30
12520;DHT22;6325;49.540;8.364;2022-07-03T15:27:57;35.60;52.80
12520;DHT22;6325;49.540;8.364;2022-07-03T15:30:25;35.10;51.80
12520;DHT22;6325;49.540;8.364;2022-07-03T15:32:53;35.50;52.00
12520;DHT22;6325;49.540;8.364;2022-07-03T15:35:21;35.70;51.10
12520;DHT22;6325;49.540;8.364;2022-07-03T15:38:09;35.60;51.70
12520;DHT22;6325;49.540;8.364;2022-07-03T15:40:45;36.00;51.40
12520;DHT22;6325;49.540;8.364;2022-07-03T15:43:49;35.10;51.10
12520;DHT22;6325;49.540;8.364;2022-07-03T15:46:27;34.40;51.50
12520;DHT22;6325;49.540;8.364;2022-07-03T15:49:18;33.40;52.50
12520;DHT22;6325;49.540;8.364;2022-07-03T15:51:59;33.30;54.80
12520;DHT22;6325;49.540;8.364;2022-07-03T15:54:39;34.00;54.00
12520;DHT22;6325;49.540;8.364;2022-07-03T15:57:11;34.60;52.80
12520;DHT22;6325;49.540;8.364;2022-07-03T15:59:39;35.70;52.00
12520;DHT22;6325;49.540;8.364;2022-07-03T16:02:10;36.10;52.00
12520;DHT22;6325;49.540;8.364;2022-07-03T16:04:56;36.10;50.80
12520;DHT22;6325;49.540;8.364;2022-07-03T16:07:26;36.40;48.90
12520;DHT22;6325;49.540;8.364;2022-07-03T16:09:56;36.40;48.20
12520;DHT22;6325;49.540;8.364;2022-07-03T17:34:21;35.40;46.40